メインページ
METAR-TAF:

METAR-TAF

空港 :

ドゥシャンベ, タジキスタン

ドゥシャンベ空港

緯度: 38-33N, 経度: 068-47E, 海抜: 803m

現時点の気象観測

当レポートは16分前の12:00(UTC)に作成
西/南西の風 6kt
気温 12°C
湿度 76%
気圧 1015 hPa
視程: 5000m
高度6800ftの雲は散在している, 積乱雲.
高度8300ftの曇り
弱いにわか雨

METAR: UTDD 241200Z 25003MPS 5000 -SHRA SCT068CB OVC083 12/08 Q1015 R09/D NOSIG RMK QFE693/0924

時間: 17:16 (12:16 UTC)

予報

当レポートは3時間16分前の09:00(UTC)に作成
予報は24日の 10時(UTC)から 24日の 22時(UTC)まで有効
変向風 4kt
視程: 6000m
高度5000ftの雲は散在している, 積乱雲.
高度8000ftの千切れ雲あり
24日の 10時(UTC)から 24日の 22時(UTC)まで一時的に
西の風 14kt、最大23ktの突風を伴う
視程: 3100m
弱いにわか雨, 靄
確率 40% :
24日の 10時(UTC)から 24日の 22時(UTC)まで一時的に
視程: 1800m
激しい雷雨, 雨

TAF: UTDD 240900Z 2410/2422 VRB02MPS 6000 SCT050CB BKN080 TEMPO 2410/2422 27007G12MPS 3100 -SHRA BR PROB40 TEMPO 2410/2422 1800 TSRA

4,000以上の空港の気象観測と天気予報(METAR報とTAF報)

利用可能な観測所は地図上に黄色い丸と赤い丸で示す。

丸の上にカーソルを重ねると観測所名を参照できる。

次にクリックすると気象観測と天気予報を参照できる。

マップの切り替え:黒色「×」印の緑ボタンをクリックして拡大、「-」印の緑ボタンをクリックして縮小、緑色の三角印をクリックして隣りの地図に切り替え


METAR-TAF: